Pope Air Force Base
KPOB : now visible

Airfield :











YOU CAN JOIN US ON...

 
LOGIN :

Register | Disclaimer

   EN    FR    IT 

 









Legend :    VFR   Marginal VFR   IFR   Intensive IFR   Very Intensive IFR
Visi :
Ceiling :
>= 8 km
>= 3000ft
5 to 8 km
1000 to 3000 ft
1500m to 5 km
500 to 1000 ft
800 to 1500m
200 to 500 ft
< 800m
< 200 ft
Symbols :   Thunderstorms  Fog  Heavy snow  Heavy precipitations  Wind > 20 kt






- Airport Elevation : 217 ft


KPOB - Pope Air Force Base

CURRENT METAR :
  • 180656Z AUTO 00000KT 10SM CLR 05/04 A3023 RMK AO2 SLP240 T00530041 $

EXPIRED METARs :
  • 180556Z AUTO 14003KT 10SM CLR 10/04 A3023 RMK AO2 SLP240 T00960044 10096 20051 58001 $
  • 180456Z AUTO 00000KT 10SM SCT075 05/05 A3024 RMK AO2 SLP244 T00540045 401620053 $

TAF TAF KPOB
Valid from the 18 at 02:00 until the 19 at 08:00 UTC


180200Z 1802/1908 09006KT 9999 FEW015 QNH3019INS
BECMG 1807/1808 09006KT 9999 SCT020 BKN025 QNH3017INS
BECMG 1813/1814 10006KT 8000 BR BKN004 QNH3011INS
BECMG 1820/1821 19006KT 8000 -SHRA OVC003 510033 QNH3010INS
BECMG 1900/1901 19006KT 8000 -RA BR OVC003 510203 QNH3009INS TX16/1900Z TN07/1810Z



MET'MAP, your aeronautical weather chart ! - Copyright ORBIFLY December 2007 - Disclaimer

ORBIFLY MET'MAP TEAM :

Programming & Development : Alexandra Zaïnal
Concept & original design : Baudouin d'Aumeries
Assistance for programming : Marc-Olivier Méhu
Technical & hardware support : Manuel Goepfert

Contact : metmap@orbifly.com




SOURCES & CREDITS :

   NOAA       Earth
Advisory